createdAt,value
2023-05-13T00:04:16.613Z,3.07
2023-05-13T00:09:22.103Z,2.87
2023-05-13T00:14:27.614Z,2.77
2023-05-13T00:19:33.364Z,2.67
2023-05-13T00:24:38.915Z,2.93
2023-05-13T00:29:44.467Z,2.93
2023-05-13T00:34:49.913Z,3.10
2023-05-13T00:39:55.419Z,2.80
2023-05-13T00:45:00.930Z,3.17
2023-05-13T00:50:07.624Z,3.00
2023-05-13T00:55:13.542Z,3.00
2023-05-13T01:00:19.994Z,3.10
2023-05-13T01:05:51.900Z,2.97
2023-05-13T01:11:00.577Z,3.00
2023-05-13T01:16:09.172Z,2.67
2023-05-13T01:21:14.694Z,3.23
2023-05-13T01:26:21.526Z,3.10
2023-05-13T01:31:28.709Z,3.07
2023-05-13T01:36:34.584Z,3.47
2023-05-13T01:41:41.058Z,2.60
2023-05-13T01:46:49.003Z,3.13
2023-05-13T01:51:55.124Z,3.00
2023-05-13T01:57:00.761Z,2.87
2023-05-13T02:02:09.211Z,2.93
2023-05-13T02:07:14.693Z,3.30
2023-05-13T02:12:22.429Z,2.80
2023-05-13T02:17:28.072Z,2.57
2023-05-13T02:22:33.840Z,2.70
2023-05-13T02:27:39.431Z,3.03
2023-05-13T02:32:45.218Z,3.87
2023-05-13T02:37:51.042Z,2.70
2023-05-13T02:42:56.764Z,2.90
2023-05-13T02:48:04.062Z,3.10
2023-05-13T02:53:09.812Z,3.23
2023-05-13T02:58:18.746Z,3.50
2023-05-13T03:03:25.744Z,3.40
2023-05-13T03:08:31.661Z,3.00
2023-05-13T03:13:37.635Z,2.67
2023-05-13T03:18:43.166Z,3.07
2023-05-13T03:23:48.930Z,2.97
2023-05-13T03:28:55.130Z,3.17
2023-05-13T03:34:01.144Z,3.17
2023-05-13T03:39:10.540Z,3.10
2023-05-13T03:44:19.667Z,3.47
2023-05-13T03:49:25.310Z,3.00
2023-05-13T03:54:44.957Z,3.03
2023-05-13T03:59:51.526Z,3.37
2023-05-13T04:04:57.308Z,3.20
2023-05-13T04:10:03.964Z,3.40
2023-05-13T04:15:11.497Z,3.33
2023-05-13T04:20:17.172Z,3.50
2023-05-13T04:25:23.958Z,3.07
2023-05-13T04:30:32.036Z,3.00
2023-05-13T04:35:40.419Z,2.83
2023-05-13T04:46:26.341Z,4.03
2023-05-13T04:51:41.630Z,3.40
2023-05-13T04:56:49.189Z,3.40
2023-05-13T05:01:56.661Z,3.43
2023-05-13T05:07:11.349Z,3.70
2023-05-13T05:19:34.105Z,3.50
2023-05-13T05:24:40.447Z,3.30
2023-05-13T05:29:47.170Z,3.53
2023-05-13T05:34:53.504Z,3.53
2023-05-13T05:39:59.007Z,3.20
2023-05-13T05:45:05.819Z,3.33
2023-05-13T05:50:13.165Z,3.77
2023-05-13T05:55:18.901Z,3.67
2023-05-13T06:00:25.057Z,3.63
2023-05-13T06:05:32.329Z,3.67
2023-05-13T06:10:38.722Z,3.37
2023-05-13T06:15:45.771Z,3.70
2023-05-13T06:20:51.265Z,3.27
2023-05-13T06:25:58.864Z,3.67
2023-05-13T06:31:05.047Z,3.57
2023-05-13T06:36:10.876Z,3.43
2023-05-13T06:41:16.381Z,3.17
2023-05-13T06:46:22.374Z,3.53
2023-05-13T06:51:28.840Z,3.30
2023-05-13T06:56:35.542Z,3.00
2023-05-13T07:01:42.420Z,3.07
2023-05-13T07:06:49.080Z,3.13
2023-05-13T07:11:54.709Z,3.10
2023-05-13T07:17:00.236Z,3.53
2023-05-13T07:22:06.122Z,3.03
2023-05-13T07:27:11.619Z,3.27
2023-05-13T07:32:17.141Z,3.53
2023-05-13T07:37:23.825Z,2.87
2023-05-13T07:42:30.095Z,2.97
2023-05-13T07:47:35.777Z,2.90
2023-05-13T07:52:42.274Z,2.87
2023-05-13T07:57:47.870Z,3.10
2023-05-13T08:02:53.586Z,2.53
2023-05-13T08:07:59.458Z,3.17
2023-05-13T08:13:04.984Z,2.80
2023-05-13T08:18:10.487Z,2.93
2023-05-13T08:23:16.252Z,3.27
2023-05-13T08:28:21.760Z,3.10
2023-05-13T08:33:27.308Z,2.90
2023-05-13T08:38:33.622Z,2.33
2023-05-13T08:43:40.407Z,2.90
2023-05-13T08:48:46.891Z,2.80
2023-05-13T08:53:54.580Z,2.80
2023-05-13T08:59:00.124Z,2.80
2023-05-13T09:04:08.677Z,2.70
2023-05-13T09:09:14.841Z,2.93
2023-05-13T09:14:20.881Z,3.00
2023-05-13T09:19:27.048Z,2.70
2023-05-13T09:24:33.758Z,3.13
2023-05-13T09:29:39.633Z,2.60
2023-05-13T09:34:48.582Z,2.53
2023-05-13T09:39:55.873Z,2.77
2023-05-13T09:45:04.360Z,2.60
2023-05-13T09:50:12.522Z,2.97
2023-05-13T09:55:18.563Z,3.03
2023-05-13T10:00:32.276Z,2.77
2023-05-13T10:05:32.667Z,3.00
2023-05-13T10:10:40.046Z,2.70
2023-05-13T10:15:50.845Z,2.63
2023-05-13T10:20:56.484Z,2.90
2023-05-13T10:26:02.887Z,2.40
2023-05-13T10:31:08.492Z,2.80
2023-05-13T10:36:50.663Z,2.30
2023-05-13T10:41:59.183Z,2.40
2023-05-13T10:47:05.334Z,2.50
2023-05-13T10:52:13.574Z,2.50
2023-05-13T10:57:22.116Z,2.37
2023-05-13T11:02:30.648Z,2.27
2023-05-13T11:07:40.468Z,2.87
2023-05-13T11:12:48.804Z,3.07
2023-05-13T11:17:55.318Z,2.73
2023-05-13T11:23:01.054Z,2.33
2023-05-13T11:28:06.778Z,2.50
2023-05-13T11:33:13.030Z,2.63
2023-05-13T11:38:24.961Z,2.57
2023-05-13T11:43:34.467Z,2.87
2023-05-13T11:48:39.934Z,2.73
2023-05-13T11:53:45.632Z,2.70
2023-05-13T11:58:51.401Z,2.47
2023-05-13T12:04:04.627Z,2.73
2023-05-13T12:09:13.363Z,3.00
2023-05-13T12:14:20.644Z,2.43
2023-05-13T12:19:26.095Z,2.80
2023-05-13T12:24:35.834Z,2.20
2023-05-13T12:29:45.178Z,2.90
2023-05-13T12:34:52.532Z,2.23
2023-05-13T12:40:01.077Z,2.53
2023-05-13T12:45:07.988Z,2.80
2023-05-13T12:50:14.515Z,2.30
2023-05-13T12:55:20.515Z,2.47
2023-05-13T13:00:27.898Z,2.70
2023-05-13T13:05:33.756Z,2.47
2023-05-13T13:10:46.298Z,2.80
2023-05-13T13:15:53.963Z,2.47
2023-05-13T13:21:00.036Z,2.40
2023-05-13T13:26:07.706Z,2.40
2023-05-13T13:31:13.404Z,2.43
2023-05-13T13:36:19.600Z,2.47
2023-05-13T13:41:25.842Z,2.33
2023-05-13T13:46:32.716Z,2.87
2023-05-13T13:51:38.332Z,3.33
2023-05-13T13:56:45.639Z,2.70
2023-05-13T14:01:51.504Z,2.27
2023-05-13T14:06:58.895Z,3.20
2023-05-13T14:12:05.230Z,2.77
2023-05-13T14:17:12.260Z,2.40
2023-05-13T14:22:18.566Z,2.60
2023-05-13T14:27:24.790Z,3.40
2023-05-13T14:32:30.508Z,2.60
2023-05-13T14:37:36.102Z,2.60
2023-05-13T14:42:41.551Z,2.47
2023-05-13T14:47:47.345Z,2.10
2023-05-13T14:52:52.940Z,2.47
2023-05-13T14:57:58.526Z,2.40
2023-05-13T15:03:04.216Z,2.60
2023-05-13T15:08:11.500Z,2.70
2023-05-13T15:13:17.088Z,2.60
2023-05-13T15:18:22.701Z,2.50
2023-05-13T15:23:28.448Z,2.20
2023-05-13T15:28:33.894Z,2.50
2023-05-13T15:33:39.493Z,2.40
2023-05-13T15:38:45.023Z,2.47
2023-05-13T15:43:51.610Z,2.40
2023-05-13T15:48:57.396Z,2.50
2023-05-13T15:54:02.916Z,2.50
2023-05-13T15:59:08.362Z,2.57
2023-05-13T16:04:14.439Z,2.40
2023-05-13T16:09:22.409Z,2.27
2023-05-13T16:14:29.556Z,2.83
2023-05-13T16:19:36.138Z,2.60
2023-05-13T16:24:41.602Z,2.70
2023-05-13T16:29:47.216Z,2.60
2023-05-13T16:34:54.048Z,2.90
2023-05-13T16:39:59.666Z,2.10
2023-05-13T16:45:05.938Z,3.00
2023-05-13T16:50:11.740Z,2.72
2023-05-13T16:55:17.783Z,2.75
2023-05-13T17:00:23.806Z,2.70
2023-05-13T17:05:30.270Z,2.95
2023-05-13T17:10:35.856Z,3.30
2023-05-13T17:15:41.367Z,2.70
2023-05-13T17:20:47.013Z,2.75
2023-05-13T17:25:52.689Z,3.93
2023-05-13T17:30:58.219Z,2.40
2023-05-13T17:36:03.826Z,3.13
2023-05-13T17:41:09.319Z,3.40
2023-05-13T17:46:14.895Z,2.30
2023-05-13T17:51:20.357Z,3.20
2023-05-13T17:56:26.262Z,3.57
2023-05-13T18:01:31.785Z,2.83
2023-05-13T18:06:37.377Z,2.83
2023-05-13T18:11:42.906Z,2.30
2023-05-13T18:16:48.564Z,2.27
2023-05-13T18:21:54.172Z,2.73
2023-05-13T18:26:59.760Z,2.23
2023-05-13T18:32:05.736Z,2.30
2023-05-13T18:37:11.253Z,2.30
2023-05-13T18:42:16.905Z,2.20
2023-05-13T18:47:22.407Z,2.43
2023-05-13T18:52:27.863Z,2.73
2023-05-13T18:57:33.470Z,2.73
2023-05-13T19:02:39.471Z,2.30
2023-05-13T19:07:45.978Z,1.93
2023-05-13T19:12:51.996Z,2.47
2023-05-13T19:17:57.696Z,1.97
2023-05-13T19:23:03.385Z,2.90
2023-05-13T19:28:09.954Z,2.30
2023-05-13T19:33:15.543Z,2.23
2023-05-13T19:38:22.224Z,2.10
2023-05-13T19:43:27.767Z,2.70
2023-05-13T19:48:33.427Z,2.20
2023-05-13T19:53:38.937Z,2.17
2023-05-13T19:58:44.386Z,1.90
2023-05-13T20:03:49.970Z,2.40
2023-05-13T20:08:56.156Z,1.93
2023-05-13T20:14:02.036Z,2.30
2023-05-13T20:19:08.520Z,2.00
2023-05-13T20:24:14.373Z,2.30
2023-05-13T20:29:19.892Z,2.40
2023-05-13T20:34:26.582Z,2.57
2023-05-13T20:39:32.466Z,2.60
2023-05-13T20:44:38.000Z,2.27
2023-05-13T20:49:46.638Z,2.37
2023-05-13T20:54:52.115Z,2.27
2023-05-13T20:59:57.643Z,2.40
2023-05-13T21:05:03.119Z,2.03
2023-05-13T21:10:09.498Z,2.17
2023-05-13T21:15:15.437Z,2.37
2023-05-13T21:20:21.808Z,2.63
2023-05-13T21:25:27.899Z,2.13
2023-05-13T21:30:33.859Z,2.07
2023-05-13T21:35:39.556Z,2.20
2023-05-13T21:40:45.437Z,2.43
2023-05-13T21:45:51.048Z,3.10
2023-05-13T21:50:56.716Z,2.40
2023-05-13T21:56:03.191Z,2.07
2023-05-13T22:01:08.791Z,2.53
2023-05-13T22:06:14.422Z,2.60
2023-05-13T22:11:19.997Z,2.00
2023-05-13T22:16:25.557Z,2.10
2023-05-13T22:21:32.531Z,2.27
2023-05-13T22:26:38.160Z,2.10
2023-05-13T22:31:43.807Z,2.50
2023-05-13T22:36:49.496Z,2.70
2023-05-13T22:41:55.793Z,2.40
2023-05-13T22:47:01.692Z,2.30
2023-05-13T22:52:07.668Z,2.30
2023-05-13T22:57:14.289Z,2.27
2023-05-13T23:02:19.959Z,2.20
2023-05-13T23:07:25.585Z,2.67
2023-05-13T23:12:31.107Z,2.40
2023-05-13T23:17:36.662Z,2.50
2023-05-13T23:22:42.236Z,2.40
2023-05-13T23:27:47.851Z,2.30
2023-05-13T23:32:53.316Z,2.53
2023-05-13T23:37:58.860Z,2.50
2023-05-13T23:43:04.324Z,2.67
2023-05-13T23:48:09.958Z,2.60
2023-05-13T23:53:16.335Z,2.77
2023-05-13T23:58:21.969Z,2.63
